Time;durP1;ratioP1;P1;durP2;ratioP2;P2;SDS_P1;SDS_P2;PMS_P1;PMS_P2;Temp;Humidity;BMP_temperature;BMP_pressure;BME280_temperature;BME280_humidity;BME280_pressure;Samples;Min_cycle;Max_cycle;Signal;HPM_P1;HPM_P2
2022/05/03 00:01:59;;;;;;;0.63;0.57;;;14.50;99.90;;;;;;4973790;28;20038;-63
2022/05/03 00:05:08;;;;;;;0.10;0.10;;;14.50;99.90;;;;;;4973098;28;20429;-63
2022/05/03 00:08:02;;;;;;;0.93;0.75;;;14.50;99.90;;;;;;4985031;28;20062;-63
2022/05/03 00:10:49;;;;;;;2.97;2.35;;;14.30;99.90;;;;;;4972974;28;20439;-63
2022/05/03 00:13:21;;;;;;;0.63;0.63;;;14.30;99.90;;;;;;4955509;28;20042;-63
2022/05/03 00:15:50;;;;;;;0.10;0.10;;;14.40;99.90;;;;;;4973138;28;20416;-62
2022/05/03 00:18:15;;;;;;;1.95;1.73;;;14.30;99.90;;;;;;4954606;28;20395;-63
2022/05/03 00:20:46;;;;;;;0.28;0.28;;;14.30;99.90;;;;;;4988121;28;20034;-63
2022/05/03 00:23:12;;;;;;;0.43;0.38;;;14.20;99.90;;;;;;4983193;28;20071;-63
2022/05/03 00:25:38;;;;;;;1.27;1.17;;;14.20;99.90;;;;;;4986792;28;20535;-63
2022/05/03 00:28:05;;;;;;;0.10;0.10;;;14.10;99.90;;;;;;4972203;28;20512;-63
2022/05/03 00:30:31;;;;;;;0.60;0.60;;;14.20;99.90;;;;;;4971370;28;20498;-63
2022/05/03 00:32:59;;;;;;;0.73;0.63;;;14.20;99.90;;;;;;4972331;28;20152;-63
2022/05/03 00:35:25;;;;;;;1.08;1.00;;;14.20;99.90;;;;;;4971696;28;20051;-63
2022/05/03 00:37:51;;;;;;;0.20;0.20;;;14.20;99.90;;;;;;4973190;28;20043;-63
2022/05/03 00:40:20;;;;;;;0.43;0.30;;;14.20;99.90;;;;;;4986880;28;20409;-62
2022/05/03 00:43:09;;;;;;;0.55;0.55;;;14.20;99.90;;;;;;4987505;28;20057;-63
2022/05/03 00:45:41;;;;;;;1.02;0.98;;;14.10;99.90;;;;;;4987893;28;20101;-63
2022/05/03 00:48:34;;;;;;;0.80;0.50;;;14.10;99.90;;;;;;4954449;28;20062;-63
2022/05/03 00:51:10;;;;;;;16.48;1.48;;;14.20;99.90;;;;;;4980039;28;20030;-63
2022/05/03 00:53:55;;;;;;;0.30;0.20;;;14.20;99.90;;;;;;4972479;28;20449;-64
2022/05/03 00:57:28;;;;;;;2.92;1.98;;;14.10;99.90;;;;;;4972178;28;20037;-63
2022/05/03 01:00:06;;;;;;;0.93;0.77;;;14.10;99.90;;;;;;4935660;28;20059;-63
2022/05/03 01:03:18;;;;;;;0.65;0.65;;;14.10;99.90;;;;;;4971493;28;20054;-63
2022/05/03 01:06:25;;;;;;;0.47;0.38;;;14.10;99.90;;;;;;4971016;28;20034;-63
2022/05/03 01:09:09;;;;;;;1.45;0.98;;;14.00;99.90;;;;;;4972400;28;20059;-63
2022/05/03 01:11:54;;;;;;;0.20;0.20;;;14.00;99.90;;;;;;4971350;28;20030;-63
2022/05/03 01:15:05;;;;;;;1.00;0.85;;;14.00;99.90;;;;;;4986525;28;20031;-63
2022/05/03 01:17:45;;;;;;;0.63;0.63;;;14.00;99.90;;;;;;4958781;28;20414;-64
2022/05/03 01:20:15;;;;;;;0.65;0.63;;;14.00;99.90;;;;;;4965804;28;20033;-64
2022/05/03 01:23:17;;;;;;;0.32;0.30;;;14.00;99.90;;;;;;4971848;28;20034;-64
2022/05/03 01:26:06;;;;;;;;;;;13.90;99.90;;;;;;4982299;28;20038;-64
2022/05/03 01:28:48;;;;;;;0.10;0.10;;;13.80;99.90;;;;;;4960752;28;19962;-64
2022/05/03 01:31:19;;;;;;;0.60;0.55;;;13.80;99.90;;;;;;4972708;28;20040;-64
2022/05/03 01:33:45;;;;;;;0.52;0.52;;;13.70;99.90;;;;;;4976837;28;20121;-64
2022/05/03 01:36:35;;;;;;;0.38;0.38;;;13.70;99.90;;;;;;4978314;28;20039;-64
2022/05/03 01:39:13;;;;;;;1.70;1.13;;;13.70;99.90;;;;;;4978857;28;20063;-64
2022/05/03 01:42:09;;;;;;;0.28;0.28;;;13.70;99.90;;;;;;4982980;28;20026;-64
2022/05/03 01:44:57;;;;;;;0.75;0.75;;;13.60;99.90;;;;;;4971888;28;20042;-64
2022/05/03 01:47:22;;;;;;;0.10;0.10;;;13.60;99.90;;;;;;4970365;28;20035;-63
2022/05/03 01:50:20;;;;;;;0.85;0.85;;;13.60;99.90;;;;;;4970549;28;20035;-64
2022/05/03 01:53:12;;;;;;;0.10;0.10;;;13.60;99.90;;;;;;4971328;28;20558;-64
2022/05/03 01:56:09;;;;;;;2.38;1.33;;;13.60;99.90;;;;;;4971841;28;20455;-63
2022/05/03 01:59:16;;;;;;;0.70;0.70;;;13.50;99.90;;;;;;4965301;28;20499;-64
2022/05/03 02:01:55;;;;;;;5.57;0.80;;;13.30;99.90;;;;;;4970535;28;20031;-62
2022/05/03 02:04:33;;;;;;;0.20;0.20;;;13.40;99.90;;;;;;4971320;28;20077;-62
2022/05/03 02:07:24;;;;;;;0.38;0.38;;;13.20;99.90;;;;;;4962207;28;20045;-62
2022/05/03 02:10:02;;;;;;;0.10;0.10;;;13.10;99.90;;;;;;4969377;28;20047;-62
2022/05/03 02:12:28;;;;;;;0.20;0.20;;;13.20;99.90;;;;;;4971288;28;20094;-63
2022/05/03 02:15:03;;;;;;;4.03;2.03;;;13.20;99.90;;;;;;4974737;28;20040;-63
2022/05/03 02:17:41;;;;;;;0.45;0.45;;;13.20;99.90;;;;;;5001387;23;20082;-66
2022/05/03 02:20:48;;;;;;;2.63;1.52;;;13.10;99.90;;;;;;5008561;28;20042;-66
2022/05/03 02:23:44;;;;;;;2.80;1.50;;;13.10;99.90;;;;;;5010247;28;20037;-65
2022/05/03 02:26:38;;;;;;;8.77;1.10;;;13.10;99.90;;;;;;5025027;28;20060;-65
2022/05/03 02:29:11;;;;;;;0.30;0.30;;;13.00;99.90;;;;;;5007413;28;20417;-65
2022/05/03 02:32:07;;;;;;;0.15;0.15;;;13.00;99.90;;;;;;5025124;28;20033;-65
2022/05/03 02:34:40;;;;;;;0.35;0.35;;;13.00;99.90;;;;;;5009984;28;20103;-65
2022/05/03 02:37:31;;;;;;;2.58;1.98;;;13.00;99.90;;;;;;5022968;28;20053;-65
2022/05/03 02:40:11;;;;;;;0.93;0.93;;;13.00;99.90;;;;;;5009524;28;20036;-65
2022/05/03 02:42:38;;;;;;;0.25;0.25;;;12.90;99.90;;;;;;5009633;28;20397;-65
2022/05/03 02:45:06;;;;;;;0.63;0.63;;;12.80;99.90;;;;;;5008936;28;20033;-64
2022/05/03 02:47:49;;;;;;;0.38;0.38;;;12.70;99.90;;;;;;5022970;28;20068;-65
2022/05/03 02:50:26;;;;;;;0.30;0.30;;;12.70;99.90;;;;;;5008703;28;20037;-66
2022/05/03 02:53:51;;;;;;;0.68;0.68;;;12.70;99.90;;;;;;5009773;28;20805;-65
2022/05/03 02:56:59;;;;;;;0.10;0.10;;;12.60;99.90;;;;;;4972652;28;20031;-64
2022/05/03 03:02:43;;;;;;;0.43;0.43;;;12.60;99.90;;;;;;5006539;28;20038;-66
2022/05/03 03:05:12;;;;;;;1.25;0.75;;;12.50;99.90;;;;;;5004985;28;20144;-66
2022/05/03 03:08:01;;;;;;;0.85;0.85;;;12.50;99.90;;;;;;5006676;28;20483;-66
2022/05/03 03:10:49;;;;;;;0.38;0.38;;;12.40;99.90;;;;;;5010833;28;20030;-64
2022/05/03 03:13:41;;;;;;;0.20;0.20;;;12.40;99.90;;;;;;5002990;28;20379;-64
2022/05/03 03:16:12;;;;;;;0.10;0.10;;;12.30;99.90;;;;;;5009675;28;20037;-64
2022/05/03 03:18:43;;;;;;;0.45;0.32;;;11.90;99.90;;;;;;5008676;28;20030;-65
2022/05/03 03:21:13;;;;;;;0.63;0.63;;;11.90;99.90;;;;;;5014248;28;20501;-65
2022/05/03 03:23:41;;;;;;;3.33;2.13;;;11.60;99.90;;;;;;5014666;28;20397;-64
2022/05/03 03:26:10;;;;;;;1.13;1.02;;;11.70;99.90;;;;;;5010534;28;20030;-65
2022/05/03 03:28:37;;;;;;;0.95;0.90;;;11.80;99.90;;;;;;5022202;28;20033;-65
2022/05/03 03:31:08;;;;;;;0.32;0.32;;;11.90;99.90;;;;;;5009230;28;20773;-65
2022/05/03 03:33:37;;;;;;;0.40;0.40;;;11.90;99.90;;;;;;5007249;28;20054;-65
2022/05/03 03:36:06;;;;;;;0.17;0.17;;;11.80;99.90;;;;;;5016584;28;20029;-66
2022/05/03 03:38:39;;;;;;;3.40;1.17;;;11.80;99.90;;;;;;5010249;28;20045;-65
2022/05/03 03:41:06;;;;;;;0.85;0.85;;;11.80;99.90;;;;;;5023871;28;20041;-65
2022/05/03 03:43:32;;;;;;;1.38;1.27;;;11.80;99.90;;;;;;5007156;28;20092;-65
2022/05/03 03:45:58;;;;;;;2.22;1.33;;;11.70;99.90;;;;;;5008939;28;20458;-65
2022/05/03 03:48:23;;;;;;;0.63;0.63;;;11.80;99.90;;;;;;5009929;28;20400;-65
2022/05/03 03:50:51;;;;;;;1.08;1.00;;;11.70;99.90;;;;;;5019899;28;20029;-65
2022/05/03 03:53:17;;;;;;;0.45;0.45;;;11.60;99.90;;;;;;5019363;28;20040;-64
2022/05/03 03:55:45;;;;;;;2.58;1.75;;;11.60;99.90;;;;;;5013707;28;20029;-66
2022/05/03 03:58:12;;;;;;;0.40;0.40;;;11.60;99.90;;;;;;5009379;28;20033;-67
2022/05/03 04:00:38;;;;;;;0.38;0.38;;;11.50;99.90;;;;;;5017839;28;20593;-67
2022/05/03 04:03:04;;;;;;;0.25;0.25;;;11.50;99.90;;;;;;4996021;28;20048;-66
2022/05/03 04:05:34;;;;;;;0.40;0.40;;;11.50;99.90;;;;;;5000956;28;20033;-66
2022/05/03 04:07:59;;;;;;;0.45;0.45;;;11.50;99.90;;;;;;5010314;28;20025;-66
2022/05/03 04:10:25;;;;;;;0.88;0.70;;;11.40;99.90;;;;;;5012023;28;20042;-66
2022/05/03 04:12:51;;;;;;;1.05;1.05;;;11.40;99.90;;;;;;5011705;28;20026;-67
2022/05/03 04:15:17;;;;;;;0.20;0.20;;;11.40;99.90;;;;;;5012531;28;20476;-67
2022/05/03 04:17:43;;;;;;;0.38;0.38;;;11.40;99.90;;;;;;5015619;28;20052;-67
2022/05/03 04:20:15;;;;;;;0.22;0.22;;;11.10;99.90;;;;;;4971045;28;20070;-66
2022/05/03 04:22:41;;;;;;;0.08;0.08;;;10.90;99.90;;;;;;5003386;28;20025;-67
2022/05/03 04:25:08;;;;;;;0.82;0.47;;;11.00;99.90;;;;;;4976137;28;20386;-67
2022/05/03 04:27:34;;;;;;;0.52;0.52;;;11.10;99.90;;;;;;5011544;28;20545;-67
2022/05/03 04:30:02;;;;;;;0.82;0.80;;;11.10;99.90;;;;;;4990117;28;20168;-67
2022/05/03 04:32:30;;;;;;;0.57;0.57;;;11.20;99.90;;;;;;5011372;28;20029;-67
2022/05/03 04:34:57;;;;;;;8.35;7.60;;;11.40;99.90;;;;;;5010051;28;20058;-67
2022/05/03 04:37:22;;;;;;;2.15;2.03;;;11.70;99.90;;;;;;5011340;28;20100;-66
2022/05/03 04:39:48;;;;;;;3.90;3.47;;;11.90;99.90;;;;;;5009128;28;20049;-67
2022/05/03 04:42:14;;;;;;;3.05;2.80;;;11.70;99.90;;;;;;5009004;28;20022;-67
2022/05/03 04:44:40;;;;;;;1.02;0.85;;;11.60;99.90;;;;;;5010769;28;20061;-67
2022/05/03 04:47:06;;;;;;;0.17;0.17;;;11.40;99.90;;;;;;5011460;28;20201;-67
2022/05/03 04:49:32;;;;;;;0.95;0.95;;;11.20;99.90;;;;;;5010024;28;20026;-66
2022/05/03 04:51:58;;;;;;;3.35;1.75;;;11.30;99.90;;;;;;5018343;28;20030;-67
2022/05/03 04:54:24;;;;;;;0.68;0.45;;;11.40;99.90;;;;;;5011408;28;20489;-67
2022/05/03 04:56:56;;;;;;;0.80;0.80;;;11.40;99.90;;;;;;5015912;28;20030;-68
2022/05/03 04:59:22;;;;;;;3.58;0.38;;;11.50;99.90;;;;;;5010991;28;20022;-68
2022/05/03 05:01:48;;;;;;;0.25;0.25;;;11.30;99.90;;;;;;5019884;28;20039;-67
2022/05/03 05:04:15;;;;;;;0.30;0.30;;;11.40;99.90;;;;;;5018860;28;20080;-67
2022/05/03 05:06:41;;;;;;;0.68;0.68;;;11.20;99.90;;;;;;4998446;28;20022;-67
2022/05/03 05:09:07;;;;;;;0.40;0.40;;;11.00;99.90;;;;;;5016305;28;20022;-68
2022/05/03 05:11:33;;;;;;;0.32;0.32;;;11.00;99.90;;;;;;5011374;28;20037;-68
2022/05/03 05:13:59;;;;;;;0.20;0.20;;;11.00;99.90;;;;;;5009595;28;20026;-68
2022/05/03 05:16:24;;;;;;;1.13;0.98;;;11.10;99.90;;;;;;5013588;28;20540;-68
2022/05/03 05:18:50;;;;;;;1.20;1.10;;;11.20;99.90;;;;;;5000831;28;20045;-68
2022/05/03 05:21:16;;;;;;;0.38;0.38;;;11.30;99.90;;;;;;5010900;28;20037;-67
2022/05/03 05:23:44;;;;;;;2.08;1.77;;;11.30;99.90;;;;;;5010847;28;20021;-67
2022/05/03 05:26:11;;;;;;;0.32;0.32;;;11.30;99.90;;;;;;5009703;28;20036;-68
2022/05/03 05:28:42;;;;;;;3.42;0.80;;;11.10;99.90;;;;;;5010265;28;20040;-69
2022/05/03 05:31:08;;;;;;;0.13;0.13;;;11.30;99.90;;;;;;5008236;28;20029;-68
2022/05/03 05:33:34;;;;;;;0.40;0.40;;;11.40;99.90;;;;;;5024447;28;20040;-68
2022/05/03 05:36:31;;;;;;;2.28;2.08;;;11.40;99.90;;;;;;5011104;28;20037;-68
2022/05/03 05:38:59;;;;;;;0.10;0.10;;;11.60;99.90;;;;;;5008317;28;20556;-67
2022/05/03 05:41:25;;;;;;;2.30;1.27;;;11.80;99.90;;;;;;5010488;28;20053;-68
2022/05/03 05:43:51;;;;;;;0.22;0.22;;;11.90;99.90;;;;;;4991921;28;20470;-68
2022/05/03 05:46:17;;;;;;;0.65;0.50;;;12.10;99.90;;;;;;4997140;28;20057;-68
2022/05/03 05:48:42;;;;;;;4.65;0.90;;;12.30;99.90;;;;;;5010024;28;20029;-66
2022/05/03 05:51:11;;;;;;;0.52;0.52;;;12.40;99.90;;;;;;5009864;28;20057;-67
2022/05/03 05:53:37;;;;;;;1.08;1.08;;;12.60;99.90;;;;;;5009432;28;20124;-68
2022/05/03 05:56:04;;;;;;;7.53;1.33;;;12.70;99.90;;;;;;5009966;28;20212;-67
2022/05/03 05:58:30;;;;;;;0.90;0.80;;;12.70;99.90;;;;;;4991201;28;20038;-67
2022/05/03 06:00:56;;;;;;;0.22;0.22;;;12.80;99.90;;;;;;5009391;28;20101;-67
2022/05/03 06:03:22;;;;;;;0.17;0.17;;;12.90;99.90;;;;;;4992215;28;20708;-66
2022/05/03 06:05:49;;;;;;;0.60;0.60;;;13.00;99.90;;;;;;5010145;28;20026;-66
2022/05/03 06:08:15;;;;;;;0.13;0.13;;;12.90;99.90;;;;;;5010150;28;20500;-66
2022/05/03 06:10:41;;;;;;;0.57;0.50;;;13.00;99.90;;;;;;5008692;28;20033;-66
2022/05/03 06:13:07;;;;;;;0.20;0.20;;;13.10;99.90;;;;;;5009395;28;20030;-66
2022/05/03 06:15:33;;;;;;;0.73;0.45;;;13.20;99.90;;;;;;5007879;28;20033;-67
2022/05/03 06:18:02;;;;;;;2.17;1.13;;;13.30;99.90;;;;;;5009793;28;20049;-65
2022/05/03 06:20:27;;;;;;;0.63;0.43;;;13.40;99.90;;;;;;5008550;28;20018;-64
2022/05/03 06:22:54;;;;;;;0.45;0.45;;;13.30;99.90;;;;;;5009743;28;20052;-64
2022/05/03 06:25:19;;;;;;;0.57;0.57;;;13.40;99.90;;;;;;5009799;28;20049;-65
2022/05/03 06:27:45;;;;;;;0.15;0.15;;;13.40;99.90;;;;;;5006740;28;20033;-65
2022/05/03 06:30:11;;;;;;;0.22;0.22;;;13.50;99.90;;;;;;5009251;28;20030;-64
2022/05/03 06:32:37;;;;;;;0.28;0.28;;;13.50;99.90;;;;;;5009519;28;20160;-64
2022/05/03 06:35:04;;;;;;;1.10;1.00;;;13.40;99.90;;;;;;5009668;28;20116;-65
2022/05/03 06:37:39;;;;;;;1.27;1.17;;;13.40;99.90;;;;;;5008196;28;20036;-67
2022/05/03 06:40:10;;;;;;;0.00;0.00;;;13.40;99.90;;;;;;5008697;28;20110;-67
2022/05/03 06:42:37;;;;;;;0.35;0.35;;;13.50;99.90;;;;;;5009803;28;20041;-67
2022/05/03 06:45:08;;;;;;;0.82;0.77;;;13.50;99.90;;;;;;5008067;28;20076;-66
2022/05/03 06:47:34;;;;;;;0.52;0.52;;;13.50;99.90;;;;;;5000065;28;20033;-67
2022/05/03 06:50:01;;;;;;;0.45;0.45;;;13.50;99.90;;;;;;5006686;28;20527;-67
2022/05/03 06:52:27;;;;;;;4.10;1.55;;;13.60;99.90;;;;;;5008850;28;20156;-68
2022/05/03 06:54:53;;;;;;;0.93;0.75;;;13.50;99.90;;;;;;5004640;28;20612;-67
2022/05/03 06:57:19;;;;;;;0.22;0.22;;;13.60;99.90;;;;;;4987440;28;20038;-67
2022/05/03 06:59:45;;;;;;;0.28;0.28;;;13.60;99.90;;;;;;4991962;28;20029;-67
2022/05/03 07:02:11;;;;;;;0.35;0.35;;;13.60;99.90;;;;;;5005289;28;20029;-66
2022/05/03 07:04:37;;;;;;;0.50;0.50;;;13.70;99.90;;;;;;4991400;28;20029;-66
2022/05/03 07:07:03;;;;;;;3.60;1.23;;;13.80;99.90;;;;;;5010067;28;20128;-68
2022/05/03 07:09:29;;;;;;;0.38;0.38;;;13.80;99.90;;;;;;5007480;28;20034;-67
2022/05/03 07:11:54;;;;;;;1.15;1.05;;;13.90;99.90;;;;;;5009875;28;20052;-67
2022/05/03 07:14:22;;;;;;;0.50;0.35;;;13.80;99.90;;;;;;5009234;28;20532;-67
2022/05/03 07:16:50;;;;;;;0.20;0.20;;;13.80;99.90;;;;;;5008336;28;20875;-67
2022/05/03 07:24:58;;;;;;;2.38;0.63;;;13.70;99.90;;;;;;4955265;28;20043;-67
2022/05/03 07:27:23;;;;;;;0.32;0.32;;;13.90;99.90;;;;;;4996157;28;20088;-67
2022/05/03 07:29:49;;;;;;;0.05;0.05;;;14.00;99.90;;;;;;5012485;28;20030;-67
2022/05/03 07:32:15;;;;;;;0.77;0.77;;;14.00;99.90;;;;;;5013290;28;20036;-67
2022/05/03 07:34:41;;;;;;;0.82;0.82;;;14.10;99.90;;;;;;5012870;28;20448;-67
2022/05/03 07:37:07;;;;;;;5.57;0.80;;;14.20;99.90;;;;;;5013271;28;20033;-67
2022/05/03 07:39:32;;;;;;;0.40;0.30;;;14.10;99.90;;;;;;5012786;28;20102;-67
2022/05/03 07:41:58;;;;;;;8.23;2.15;;;14.30;99.90;;;;;;5011821;28;20488;-67
2022/05/03 07:44:24;;;;;;;0.82;0.82;;;14.40;99.90;;;;;;5010281;28;20057;-68
2022/05/03 07:46:50;;;;;;;0.65;0.65;;;14.40;99.90;;;;;;5013079;28;20029;-67
2022/05/03 07:49:16;;;;;;;0.30;0.30;;;14.60;99.90;;;;;;5007846;28;20034;-67
2022/05/03 07:51:42;;;;;;;0.52;0.52;;;14.80;99.90;;;;;;5013244;28;20034;-67
2022/05/03 07:54:09;;;;;;;0.47;0.47;;;14.90;99.90;;;;;;5011051;28;20033;-67
2022/05/03 07:56:36;;;;;;;0.13;0.13;;;15.10;99.90;;;;;;5012992;28;20060;-67
2022/05/03 07:59:02;;;;;;;0.60;0.60;;;15.30;99.90;;;;;;5011596;28;20068;-67
2022/05/03 08:01:29;;;;;;;0.43;0.43;;;15.40;99.90;;;;;;5012994;28;20112;-67
2022/05/03 08:03:54;;;;;;;3.90;2.08;;;15.60;99.90;;;;;;5010585;28;20029;-67
2022/05/03 08:06:23;;;;;;;0.35;0.35;;;15.80;99.90;;;;;;5008674;28;20490;-67
2022/05/03 08:08:48;;;;;;;0.45;0.45;;;16.00;99.90;;;;;;5009592;28;20068;-68
2022/05/03 08:11:14;;;;;;;1.65;0.77;;;15.90;99.90;;;;;;5019074;28;20077;-67
2022/05/03 08:13:41;;;;;;;1.13;0.77;;;15.90;99.90;;;;;;5011637;28;20037;-67
2022/05/03 08:16:18;;;;;;;1.00;0.90;;;16.10;99.90;;;;;;5023745;28;20485;-66
2022/05/03 08:18:47;;;;;;;1.35;1.20;;;16.20;99.90;;;;;;5021123;23;20489;-63
2022/05/03 08:21:14;;;;;;;1.08;0.82;;;16.10;99.90;;;;;;4982002;28;20029;-63
2022/05/03 08:23:40;;;;;;;0.40;0.40;;;16.30;99.90;;;;;;4992257;28;20038;-66
2022/05/03 08:26:06;;;;;;;0.32;0.32;;;16.50;99.90;;;;;;4991491;28;20026;-63
2022/05/03 08:28:33;;;;;;;0.50;0.20;;;16.40;99.90;;;;;;4998833;28;20080;-65
2022/05/03 08:30:59;;;;;;;0.68;0.68;;;16.60;99.90;;;;;;4975898;28;20116;-64
2022/05/03 08:33:26;;;;;;;0.55;0.50;;;17.10;99.90;;;;;;4981031;28;20037;-64
2022/05/03 08:35:52;;;;;;;0.50;0.50;;;17.20;99.90;;;;;;4974985;28;20030;-64
2022/05/03 08:43:46;;;;;;;1.48;0.98;;;17.70;99.90;;;;;;5000036;28;20030;-64
2022/05/03 08:46:14;;;;;;;0.40;0.40;;;17.50;99.90;;;;;;4992491;28;20494;-64
2022/05/03 08:48:42;;;;;;;0.70;0.70;;;17.40;99.90;;;;;;4982086;28;20455;-64
2022/05/03 08:51:14;;;;;;;0.35;0.35;;;17.80;99.90;;;;;;4974808;28;20037;-64
2022/05/03 08:53:41;;;;;;;0.47;0.47;;;18.20;99.90;;;;;;4979704;28;20034;-64
2022/05/03 08:56:09;;;;;;;0.32;0.32;;;18.60;99.90;;;;;;4988551;28;20022;-64
2022/05/03 08:58:35;;;;;;;0.30;0.30;;;18.50;99.90;;;;;;4999482;28;20065;-64
2022/05/03 09:01:03;;;;;;;0.63;0.63;;;18.10;99.90;;;;;;4955741;28;20550;-64
2022/05/03 09:03:28;;;;;;;1.23;0.52;;;18.40;99.90;;;;;;4990131;28;20394;-64
2022/05/03 09:05:54;;;;;;;0.15;0.15;;;18.50;99.90;;;;;;4993155;28;20034;-64
2022/05/03 09:08:23;;;;;;;4.60;1.45;;;18.70;99.90;;;;;;4995725;28;20109;-65
2022/05/03 09:10:50;;;;;;;0.10;0.10;;;18.90;99.90;;;;;;5009535;28;20541;-65
2022/05/03 09:13:20;;;;;;;6.97;0.95;;;19.00;99.90;;;;;;4988298;28;20105;-65
2022/05/03 09:15:51;;;;;;;0.52;0.32;;;19.30;99.90;;;;;;5009169;28;20021;-65
2022/05/03 09:18:24;;;;;;;;;;;19.40;99.90;;;;;;4990388;28;20046;-64
2022/05/03 09:23:47;;;;;;;13.70;0.60;;;19.50;99.90;;;;;;4998922;28;20575;-64
2022/05/03 09:26:26;;;;;;;0.52;0.52;;;19.30;99.90;;;;;;4995512;28;20321;-63
2022/05/03 09:29:09;;;;;;;0.30;0.30;;;19.40;99.90;;;;;;5002844;28;20172;-63
2022/05/03 09:31:47;;;;;;;0.43;0.43;;;19.60;99.90;;;;;;4991735;28;20023;-64
2022/05/03 09:34:28;;;;;;;1.88;1.27;;;19.50;99.90;;;;;;4998634;28;20569;-64
2022/05/03 09:37:00;;;;;;;1.50;1.08;;;19.40;99.90;;;;;;4991282;28;20125;-64
2022/05/03 09:39:37;;;;;;;0.20;0.20;;;19.50;99.60;;;;;;4981467;28;20121;-64
2022/05/03 09:42:06;;;;;;;11.13;1.77;;;19.60;99.20;;;;;;4991804;28;20070;-64
2022/05/03 09:44:36;;;;;;;0.38;0.38;;;19.70;99.80;;;;;;4998482;28;20030;-64
2022/05/03 09:47:09;;;;;;;0.77;0.73;;;19.70;99.70;;;;;;4977398;28;20393;-64
2022/05/03 09:49:38;;;;;;;7.82;2.00;;;19.70;99.50;;;;;;4999174;28;20041;-63
2022/05/03 09:52:06;;;;;;;0.10;0.10;;;20.00;98.60;;;;;;5011249;28;20073;-63
2022/05/03 09:54:48;;;;;;;0.88;0.88;;;20.10;98.20;;;;;;4980997;28;20022;-63
2022/05/03 09:57:26;;;;;;;0.03;0.03;;;20.00;98.30;;;;;;5009475;28;20052;-64
2022/05/03 09:59:55;;;;;;;0.20;0.20;;;20.30;98.10;;;;;;4995304;28;20501;-64
2022/05/03 10:02:27;;;;;;;0.57;0.57;;;20.40;96.40;;;;;;4993452;28;20026;-65
2022/05/03 10:04:58;;;;;;;0.10;0.10;;;20.40;96.80;;;;;;4978025;28;20084;-64
2022/05/03 10:07:25;;;;;;;;;;;20.40;96.50;;;;;;4989294;28;20352;-63
2022/05/03 10:09:52;;;;;;;0.00;0.00;;;20.60;95.60;;;;;;4974735;28;20378;-64
2022/05/03 10:12:19;;;;;;;0.30;0.30;;;20.70;95.90;;;;;;4973292;28;20499;-64
2022/05/03 10:14:47;;;;;;;2.13;0.28;;;20.70;95.50;;;;;;4983144;28;20030;-64
2022/05/03 10:20:40;;;;;;;0.40;0.40;;;21.00;96.00;;;;;;4993176;28;20044;-63
2022/05/03 10:23:28;;;;;;;0.52;0.52;;;20.90;95.70;;;;;;4989089;28;20029;-65
2022/05/03 10:26:10;;;;;;;0.75;0.65;;;20.50;95.60;;;;;;5009252;28;20694;-66
2022/05/03 10:29:03;;;;;;;0.55;0.50;;;20.70;96.30;;;;;;4986952;28;20042;-65
2022/05/03 10:31:29;;;;;;;0.30;0.30;;;20.70;95.50;;;;;;4990887;28;20104;-64
2022/05/03 10:33:57;;;;;;;1.30;0.98;;;20.60;96.30;;;;;;4997921;28;20679;-64
2022/05/03 10:36:34;;;;;;;0.60;0.47;;;20.40;96.60;;;;;;4990502;28;20026;-64
2022/05/03 10:39:05;;;;;;;1.08;0.70;;;21.00;95.50;;;;;;4997494;28;20038;-64
2022/05/03 10:41:32;;;;;;;0.55;0.38;;;21.30;95.60;;;;;;4973265;28;20040;-65
2022/05/03 10:44:17;;;;;;;0.70;0.70;;;21.50;95.50;;;;;;4998142;28;20030;-65
2022/05/03 10:46:50;;;;;;;0.55;0.38;;;21.50;94.50;;;;;;4976210;28;20022;-65
2022/05/03 10:49:20;;;;;;;0.35;0.15;;;21.70;94.40;;;;;;4980118;28;20478;-65
2022/05/03 10:51:45;;;;;;;1.90;0.70;;;21.50;94.70;;;;;;4990627;28;20069;-65
2022/05/03 10:54:11;;;;;;;0.30;0.30;;;21.10;95.40;;;;;;4997853;28;20062;-65
2022/05/03 10:57:03;;;;;;;0.65;0.65;;;21.10;94.90;;;;;;4973311;28;20038;-64
2022/05/03 10:59:49;;;;;;;0.28;0.28;;;21.50;94.40;;;;;;4983963;28;20072;-65
2022/05/03 11:02:15;;;;;;;0.25;0.25;;;21.60;94.30;;;;;;4977400;28;20041;-65
2022/05/03 11:05:18;;;;;;;0.88;0.63;;;21.70;93.80;;;;;;5010603;28;20018;-64
2022/05/03 11:08:17;;;;;;;1.80;0.55;;;21.90;93.40;;;;;;5004688;28;20765;-64
2022/05/03 11:10:44;;;;;;;1.42;1.15;;;21.90;93.70;;;;;;5008535;28;20541;-64
2022/05/03 11:13:39;;;;;;;1.70;1.20;;;22.10;93.20;;;;;;4991234;28;20072;-64
2022/05/03 11:16:23;;;;;;;0.38;0.35;;;22.30;93.30;;;;;;4990399;28;20494;-63
2022/05/03 11:18:49;;;;;;;1.48;0.93;;;22.60;91.90;;;;;;5000394;28;20085;-63
2022/05/03 11:21:17;;;;;;;0.70;0.35;;;22.60;91.60;;;;;;4994073;28;20446;-64
2022/05/03 11:23:51;;;;;;;0.43;0.43;;;22.60;92.30;;;;;;4981070;28;20502;-64
2022/05/03 11:26:20;;;;;;;0.50;0.38;;;22.90;91.60;;;;;;5013514;28;20096;-64
2022/05/03 11:28:50;;;;;;;0.20;0.20;;;22.80;91.70;;;;;;4969941;28;20034;-64
2022/05/03 11:31:19;;;;;;;0.22;0.20;;;23.00;91.10;;;;;;4994409;28;20486;-65
2022/05/03 11:33:59;;;;;;;0.52;0.52;;;23.10;91.00;;;;;;4987447;28;20084;-65
2022/05/03 11:36:27;;;;;;;1.30;1.02;;;23.30;90.00;;;;;;4995833;28;20065;-65
2022/05/03 11:38:54;;;;;;;4.47;2.10;;;23.40;90.80;;;;;;5003045;28;20402;-65
2022/05/03 11:41:27;;;;;;;0.15;0.15;;;23.60;89.20;;;;;;4976200;28;20030;-65
2022/05/03 11:43:53;;;;;;;0.35;0.35;;;23.60;88.80;;;;;;4981997;28;20030;-65
2022/05/03 11:46:22;;;;;;;0.38;0.38;;;23.70;88.40;;;;;;4994992;28;20029;-64
2022/05/03 11:49:01;;;;;;;0.15;0.15;;;23.80;87.70;;;;;;4994603;28;20030;-64
2022/05/03 11:57:26;;;;;;;0.35;0.30;;;24.00;86.30;;;;;;4995295;28;20042;-65
2022/05/03 11:59:55;;;;;;;;;;;24.30;86.00;;;;;;4977215;28;20160;-65
2022/05/03 12:02:41;;;;;;;0.10;0.10;;;24.80;83.90;;;;;;4978566;28;19920;-64
2022/05/03 12:05:15;;;;;;;0.75;0.70;;;24.30;84.10;;;;;;4985816;28;20026;-65
2022/05/03 12:07:44;;;;;;;0.30;0.30;;;24.70;85.90;;;;;;4976560;28;20049;-64
2022/05/03 12:10:27;;;;;;;0.32;0.32;;;23.70;85.40;;;;;;4995645;28;20069;-65
2022/05/03 12:13:16;;;;;;;4.47;1.67;;;23.60;85.90;;;;;;4993514;28;20026;-64
2022/05/03 12:15:59;;;;;;;0.00;0.00;;;23.10;86.10;;;;;;5009212;28;20108;-64
2022/05/03 12:18:39;;;;;;;1.90;0.47;;;23.30;85.50;;;;;;4990165;28;20042;-64
2022/05/03 12:21:26;;;;;;;0.17;0.13;;;23.00;85.00;;;;;;4975614;28;20417;-64
2022/05/03 12:23:59;;;;;;;0.15;0.15;;;22.70;85.30;;;;;;4983287;28;20641;-65
2022/05/03 12:26:35;;;;;;;0.10;0.10;;;23.00;85.10;;;;;;4992993;28;20034;-66
2022/05/03 12:29:02;;;;;;;0.13;0.10;;;22.90;85.10;;;;;;4998173;28;20034;-66
2022/05/03 12:31:36;;;;;;;0.65;0.55;;;22.40;86.50;;;;;;4992391;28;20517;-65
2022/05/03 12:34:11;;;;;;;3.20;1.13;;;22.30;86.30;;;;;;4999644;28;20030;-64
2022/05/03 12:36:44;;;;;;;0.50;0.40;;;22.20;86.10;;;;;;4993063;28;20030;-65
2022/05/03 12:39:13;;;;;;;0.47;0.30;;;21.90;87.40;;;;;;4982098;28;20031;-65
2022/05/03 12:41:39;;;;;;;0.68;0.35;;;22.10;87.10;;;;;;4992966;28;20037;-65
2022/05/03 12:44:13;;;;;;;0.45;0.38;;;22.30;86.20;;;;;;4999958;28;20084;-65
2022/05/03 12:46:40;;;;;;;0.98;0.43;;;22.00;86.30;;;;;;4972561;28;20026;-65
2022/05/03 12:49:12;;;;;;;0.00;0.00;;;22.30;86.30;;;;;;4984473;28;20036;-65
2022/05/03 12:51:47;;;;;;;0.10;0.10;;;22.50;86.30;;;;;;4980996;28;20562;-64
2022/05/03 12:54:14;;;;;;;0.10;0.10;;;22.40;86.70;;;;;;4966763;28;20469;-64
2022/05/03 12:59:28;;;;;;;0.13;0.10;;;22.30;85.00;;;;;;4983821;28;20041;-65
2022/05/03 13:01:55;;;;;;;5.95;4.28;;;22.30;86.40;;;;;;4975152;28;20026;-65
2022/05/03 13:04:22;;;;;;;0.57;0.57;;;22.50;85.00;;;;;;4999393;28;20027;-65
2022/05/03 13:06:50;;;;;;;0.73;0.65;;;22.70;85.60;;;;;;4975375;28;20394;-65
2022/05/03 13:09:16;;;;;;;0.32;0.30;;;22.80;83.30;;;;;;4967383;28;20033;-65
2022/05/03 13:11:43;;;;;;;0.03;0.03;;;22.90;83.30;;;;;;4994377;28;20030;-65
2022/05/03 13:14:09;;;;;;;0.13;0.13;;;23.40;84.80;;;;;;5002866;28;20028;-65
2022/05/03 13:16:36;;;;;;;0.40;0.32;;;24.00;83.80;;;;;;5011584;28;20048;-65
2022/05/03 13:19:02;;;;;;;0.25;0.13;;;24.40;83.80;;;;;;4984966;28;20686;-65
2022/05/03 13:21:28;;;;;;;0.10;0.10;;;23.90;82.30;;;;;;4991124;28;20061;-65
2022/05/03 13:23:54;;;;;;;0.00;0.00;;;23.90;82.20;;;;;;4998933;28;20061;-68
2022/05/03 13:26:21;;;;;;;0.43;0.43;;;24.00;81.10;;;;;;4974727;28;20031;-67
2022/05/03 13:28:47;;;;;;;0.28;0.28;;;24.00;79.30;;;;;;4996273;28;20119;-66
2022/05/03 13:31:13;;;;;;;0.00;0.00;;;24.00;78.70;;;;;;4974669;28;20045;-66
2022/05/03 13:33:40;;;;;;;0.45;0.45;;;23.60;79.10;;;;;;4997744;28;20512;-66
2022/05/03 13:41:35;;;;;;;0.20;0.20;;;23.10;74.20;;;;;;4974604;28;20059;-66
2022/05/03 13:44:02;;;;;;;1.65;0.65;;;23.20;74.10;;;;;;4998903;28;20061;-66
2022/05/03 13:46:32;;;;;;;0.20;0.20;;;22.40;75.50;;;;;;4974199;28;20026;-67
2022/05/03 13:48:57;;;;;;;0.20;0.20;;;22.30;76.60;;;;;;4997828;28;20026;-66
2022/05/03 13:51:23;;;;;;;0.05;0.05;;;22.60;77.00;;;;;;4991290;28;20053;-66